Tiempo atmosférico en la estación meteorológica de La Aldea de San Nicolás, Las Palmas (318 m.)



Fecha
DESCASC
Temp. máxima en grados centígrados (hora)
DESCASC
Temp. mínima en grados centígrados (hora)
DESCASC
Temp. media en grados centígrados
DESCASC
Racha de viento máxima en m/sg (hora)
DESCASC
Velocidad máxima media en intervalos de 10 minutos(hora)
DESCASC
Precipitaciones diarias en mm
DESCASC
Precipitaciones de 00:00 a 06:00 en mm
DESCASC
Precipitaciones de 06:00 a 12:00 en mm
DESCASC
Precipitaciones de 12:00 a 18:00 en mm
DESCASC
Precipitaciones de 18:00 a 24:00 en mm
DESCASC
08-12-2019 23.1 (14:20) 18.1 (07:20) 20.6 16.39 (03:10) 8.89 (15:00) 0 0 0 0 0
07-12-2019 23.1 (14:00) 17.6 (06:50) 20.4 15.83 (16:00) 7.78 (17:20) 0 0 0 0 0
06-12-2019 22.9 (14:10) 15.9 (03:30) 19.4 19.72 (21:20) 8.33 (03:20) 5.2 1.4 0.8 0 3
05-12-2019 20.5 (16:00) 16.5 (00:00) 18.5 16.11 (13:40) 7.78 (13:40) 7.4 4.6 0.2 1.4 1.2
04-12-2019 24.3 (14:40) 16.2 (00:00) 20.3 12.22 (16:40) 5.83 (16:40) 0 0 0 0 0
03-12-2019 23.1 (11:40) 16.8 (00:00) 19.9 13.61 (09:50) 6.11 (04:30) -- 1 -- 0 0
02-12-2019 25 (13:20) 16.7 (00:00) 20.9 15.28 (00:50) 8.06 (00:30) 0.2 0 0.2 0 0
01-12-2019 24.6 (14:20) 12.2 (00:00) 18.4 19.17 (18:00) 11.11 (15:40) 0 0 0 0 0
30-11-2019 29.3 (16:00) 13.4 (00:00) 21.3 8.89 (23:20) 5.56 (23:10) 0 0 0 0 0
29-11-2019 29.2 (16:30) 12.8 (00:00) 21 7.5 (17:10) 5 (12:00) 0 0 0 0 0
28-11-2019 24.8 (14:40) 12.1 (00:00) 18.4 7.78 (16:00) 4.72 (16:00) 0 0 0 0 0
27-11-2019 24.8 (12:50) 13.5 (00:00) 19.1 14.44 (13:50) 8.89 (13:50) 0 0 0 0 0
26-11-2019 24.6 (12:40) 13.3 (00:00) 19 15 (15:40) 9.17 (18:40) 0 0 0 0 0
25-11-2019 23.5 (13:00) 13.4 (00:00) 18.4 15.28 (17:30) 10.83 (17:30) 0 0 0 0 0
24-11-2019 24.6 (13:20) 18.9 (00:00) 21.8 20.83 (15:40) 10 (21:30) 0.4 0 0.4 0 0
23-11-2019 25.9 (11:40) 17.7 (00:00) 21.8 14.72 (18:10) 6.67 (11:30) 0.6 0 0.2 0.4 0
22-11-2019 25.4 (15:30) 15.2 (00:00) 20.3 11.11 (11:40) 6.39 (12:30) 0 0 0 0 0
21-11-2019 23.7 (12:40) 15.3 (00:00) 19.5 11.39 (14:50) 7.78 (14:50) 0 0 0 0 0
20-11-2019 23.4 (14:00) 12.6 (00:00) 18 10 (12:20) 6.94 (12:50) 0 0 0 0 0
19-11-2019 25 (14:10) 15.6 (00:00) 20.3 11.67 (14:00) 4.72 (13:40) 0.2 0 0.2 0 0
18-11-2019 24.5 (14:40) 12.5 (00:00) 18.5 16.67 (17:50) 9.44 (13:50) 0 0 0 0 0
17-11-2019 25.7 (15:10) 18 (00:00) 21.9 15.28 (20:20) 9.44 (19:00) 0 0 0 0 0
16-11-2019 24.1 (15:30) 17.1 (00:00) 20.6 20 (14:20) 10.28 (10:10) 0.6 0 0.6 0 0
15-11-2019 24.9 (15:20) 18.5 (00:00) 21.7 17.78 (07:20) 9.72 (16:50) 1.2 0 1.2 0 0
14-11-2019 25 (11:30) 20.3 (00:00) 22.6 18.89 (01:30) 12.22 (13:10) 0 0 0 0 0
13-11-2019 25.4 (13:00) 20.4 (00:00) 22.9 23.33 (06:40) 13.33 (00:20) 0 0 0 0 0
12-11-2019 25.9 (15:40) 20.5 (00:00) 23.2 23.89 (05:00) 13.33 (23:30) 0 0 0 0 0
11-11-2019 25.6 (14:10) 20.2 (07:20) 22.9 24.72 (12:30) 11.11 (11:20) 0 0 0 0 0

Gráficas

Temp. máximas Temp. mínimas Temp. medias Precipitaciones Rachas de viento máximas Velocidades máximas media en intervalos de 10 minutos

Datos horarios

Fecha y hora oficial Temperatura (ºC) Velocidad del viento (km/h) Dirección del viento Racha (km/h) Dirección de racha Precipitación (mm) Presión (hPa) Tendencia (hPa) Humedad (%)
2019-12-10 23:00:00 15.1 3 Nordeste 8 Norte 0 -- -- 82
2019-12-10 22:00:00 15.3 2 Oeste 9 Norte 0 -- -- 80
2019-12-10 21:00:00 15.8 4 Norte 5 Norte 0 -- -- 78
2019-12-10 20:00:00 16.4 3 Norte 5 Norte 0 -- -- 76
2019-12-10 19:00:00 17.4 0 Calma 14 Sur 0 -- -- 73
2019-12-10 18:00:00 19.2 8 Sur 20 Sur 0 -- -- 66
2019-12-10 17:00:00 21.5 15 Sur 22 Sudoeste 0 -- -- 58
2019-12-10 16:00:00 22 15 Sur 30 Sur 0 -- -- 55
2019-12-10 15:00:00 22.1 19 Sur 27 Sur 0 -- -- 54
2019-12-10 14:00:00 21.6 19 Sur 27 Sur 0 -- -- 58
2019-12-10 13:00:00 21.6 17 Sur 25 Sur 0 -- -- 54
2019-12-10 12:00:00 20 10 Sur 22 Sur 0 -- -- 63
2019-12-10 11:00:00 18.8 12 Sur 15 Sur 0 -- -- 59
2019-12-10 10:00:00 15.5 0 Calma 4 Nordeste 0 -- -- 51
2019-12-10 09:00:00 13.4 2 Nordeste 11 Norte 0 -- -- 56
2019-12-10 08:00:00 13.5 6 Norte 10 Nordeste 0 -- -- 56
2019-12-10 07:00:00 13.2 4 Nordeste 11 Norte 0 -- -- 62
2019-12-10 06:00:00 13.2 3 Nordeste 12 Norte 0 -- -- 65
2019-12-10 05:00:00 13.2 3 Norte 12 Norte 0 -- -- 66
2019-12-10 04:00:00 14.1 6 Norte 12 Norte 0 -- -- 68
2019-12-10 03:00:00 14.6 7 Norte 12 Norte 0 -- -- 67
2019-12-10 02:00:00 14.7 8 Norte 15 Norte 0 -- -- 69
2019-12-10 01:00:00 15 7 Norte 12 Nordeste 0 -- -- 74
2019-12-10 00:00:00 14.8 8 Norte 12 Norte 0 -- -- 76
2019-12-09 23:00:00 15 6 Norte 10 Norte 0 -- -- 71
2019-12-09 22:00:00 15.8 8 Norte 12 Norte 0 -- -- 68
2019-12-09 21:00:00 16.3 7 Norte 11 Norte 0 -- -- 64
2019-12-09 20:00:00 17 8 Norte 10 Norte 0 -- -- 67
2019-12-09 19:00:00 18.1 3 Norte 12 Sur 0 -- -- 56
2019-12-09 18:00:00 19.6 8 Sur 21 Sur 0 -- -- 52
2019-12-09 17:00:00 22.3 16 Sur 23 Sur 0 -- -- 47
2019-12-09 16:00:00 23 17 Sur 28 Sur 0 -- -- 44
2019-12-09 15:00:00 23.4 19 Sur 29 Sur 0 -- -- 40
2019-12-09 14:00:00 23.5 19 Sur 25 Sur 0 -- -- 37
2019-12-09 13:00:00 23.1 17 Sur 24 Sur 0 -- -- 41
2019-12-09 12:00:00 21.2 15 Sur 20 Sur 0 -- -- 46
2019-12-09 11:00:00 19.3 8 Este 19 Nordeste 0 -- -- 50
2019-12-09 10:00:00 17.1 4 Nordeste 13 Nordeste 0 -- -- 51
2019-12-09 09:00:00 15.7 5 Este 16 Este 0 -- -- 57
2019-12-09 08:00:00 15.1 6 Norte 14 Norte 0 -- -- 58
2019-12-09 07:00:00 14.6 8 Norte 13 Norte 0 -- -- 62
2019-12-09 06:00:00 14.3 8 Norte 13 Norte 0 -- -- 66
2019-12-09 05:00:00 14.2 8 Nordeste 14 Norte 0 -- -- 66
2019-12-09 04:00:00 14.1 9 Norte 12 Nordeste 0 -- -- 67
2019-12-09 03:00:00 14.3 7 Nordeste 13 Norte 0 -- -- 66
2019-12-09 02:00:00 14.6 6 Nordeste 11 Norte 0 -- -- 72
2019-12-09 01:00:00 14.6 5 Norte 13 Norte 0 -- -- 67
2019-12-09 00:00:00 15.9 6 Nordeste 14 Nordeste 0 -- -- 61
2019-12-08 23:00:00 15.7 6 Norte 14 Nordeste 0 -- -- 65
2019-12-08 22:00:00 16.7 10 Nordeste 18 Nordeste 0 -- -- 61
2019-12-08 21:00:00 16.6 11 Nordeste 23 Nordeste 0 -- -- 61
2019-12-08 20:00:00 16.8 9 Nordeste 18 Nordeste 0 -- -- 56
2019-12-08 19:00:00 17.4 9 Nordeste 17 Norte 0 -- -- 53
2019-12-08 18:00:00 19.2 10 Sur 21 Sur 0 -- -- 59
2019-12-08 17:00:00 21.5 14 Sur 23 Sur 0 -- -- 50
2019-12-08 16:00:00 21.8 15 Sur 24 Sur 0 -- -- 51
2019-12-08 15:00:00 21.7 15 Sur 28 Sur 0 -- -- 51
2019-12-08 14:00:00 21.4 15 Sur 32 Sudoeste 0 -- -- 51
2019-12-08 13:00:00 20.6 17 Sur 30 Norte 0 -- -- 53
2019-12-08 12:00:00 19.8 13 Norte 30 Noroeste 0 -- -- 50
2019-12-08 11:00:00 19.1 12 Sur 21 Sur 0 -- -- 60
2019-12-08 10:00:00 17.6 11 Norte 20 Norte 0 -- -- 57
2019-12-08 09:00:00 16 13 Norte 19 Nordeste 0 -- -- 60
2019-12-08 08:00:00 15.3 10 Nordeste 15 Nordeste 0 -- -- 62
2019-12-08 07:00:00 15.5 9 Norte 18 Nordeste 0 -- -- 64
2019-12-08 06:00:00 16.5 12 Norte 23 Norte 0 -- -- 59
2019-12-08 05:00:00 16.5 10 Nordeste 16 Nordeste 0 -- -- 62
2019-12-08 04:00:00 16.6 9 Norte 19 Norte 0 -- -- 66
2019-12-08 03:00:00 17.1 9 Norte 17 Norte 0 -- -- 63
2019-12-08 02:00:00 17.1 4 Sudoeste 18 Norte 0 -- -- 64
2019-12-08 01:00:00 17.6 10 Norte 17 Nordeste 0 -- -- 63
2019-12-08 00:00:00 18 9 Norte 24 Norte 0 -- -- 60
2019-12-07 23:00:00 18.1 16 Norte 24 Norte 0 -- -- 61
2019-12-07 22:00:00 17.9 11 Nordeste 31 Norte 0 -- -- 63
2019-12-07 21:00:00 18.2 15 Norte 30 Norte 0 -- -- 59
2019-12-07 20:00:00 18.2 11 Norte 31 Norte 0 -- -- 59
2019-12-07 19:00:00 18.4 19 Norte 36 Norte 0 -- -- 57
2019-12-07 18:00:00 18.8 21 Norte 42 Norte 0 -- -- 55
2019-12-07 17:00:00 19.8 19 Norte 40 Norte 0 -- -- 53
2019-12-07 16:00:00 20.3 20 Norte 34 Noroeste 0 -- -- 49
2019-12-07 15:00:00 20.4 18 Norte 45 Norte 0 -- -- 51
2019-12-07 14:00:00 20.2 22 Norte 38 Noroeste 0 -- -- 53
2019-12-07 13:00:00 20.4 9 Sudoeste 23 Sur 0 -- -- 58
2019-12-07 12:00:00 19.3 13 Sudoeste 29 Norte 0 -- -- 62
2019-12-07 11:00:00 18.9 16 Norte 28 Noroeste 0 -- -- 61
2019-12-07 10:00:00 17.9 10 Nordeste 20 Norte 0 -- -- 63
2019-12-07 09:00:00 16.9 7 Sudoeste 29 Nordeste 0 -- -- 67
2019-12-07 08:00:00 16.9 12 Norte 29 Norte 0 -- -- 60
2019-12-07 07:00:00 16.4 9 Norte 25 Norte 0 -- -- 62
2019-12-07 06:00:00 16.7 10 Nordeste 35 Norte 0 -- -- 60
2019-12-07 05:00:00 17 20 Norte 45 Norte 0 -- -- 55
2019-12-07 04:00:00 17.3 20 Norte 38 Norte 0 -- -- 54
2019-12-07 03:00:00 17.1 10 Nordeste 39 Norte 0 -- -- 57
2019-12-07 02:00:00 17.2 15 Norte 39 Norte 0 -- -- 56
2019-12-07 01:00:00 17.3 19 Norte 57 Norte 0 -- -- 59
2019-12-07 00:00:00 17.1 19 Norte 42 Norte 0 -- -- 63
2019-12-06 23:00:00 17.3 29 Nordeste 64 Nordeste 0 -- -- 57
2019-12-06 22:00:00 16.5 22 Norte 39 Norte 0 -- -- 67
2019-12-06 21:00:00 16.5 23 Norte 45 Nordeste 0 -- -- 71
2019-12-06 20:00:00 17 24 Norte 50 Nordeste 0 -- -- 66
2019-12-06 19:00:00 17.1 21 Norte 51 Norte 0 -- -- 63
2019-12-06 18:00:00 17.2 23 Norte 56 Nordeste 0 -- -- 62
2019-12-06 17:00:00 17.6 30 Norte 60 Nordeste 0 -- -- 61
2019-12-06 16:00:00 18 37 Norte 61 Norte 0 -- -- 61
2019-12-06 15:00:00 18.5 34 Norte 54 Norte 0 -- -- 60
2019-12-06 14:00:00 18.8 31 Norte 50 Norte 0 -- -- 59
2019-12-06 13:00:00 18.4 26 Norte 49 Norte 0 -- -- 62
2019-12-06 12:00:00 18.4 26 Norte 45 Norte 0 -- -- 57
2019-12-06 11:00:00 17.4 25 Norte 42 Norte 0 -- -- 68
2019-12-06 10:00:00 16.6 19 Norte 34 Norte 0 -- -- 72
2019-12-06 09:00:00 16 14 Norte 28 Norte 0 -- -- 66
2019-12-06 08:00:00 15.8 12 Norte 57 Nordeste 0.2 -- -- 64
2019-12-06 07:00:00 15.3 19 Norte 49 Nordeste 0.2 -- -- 73
2019-12-06 06:00:00 15.3 13 Norte 42 Nordeste 0 -- -- 71
2019-12-06 05:00:00 14.9 20 Norte 40 Nordeste 0 -- -- 78
2019-12-06 04:00:00 14.7 19 Norte 34 Norte 0.2 -- -- 75
2019-12-06 03:00:00 15.3 23 Norte 50 Nordeste 0 -- -- 70
2019-12-06 02:00:00 15 28 Norte 54 Nordeste 1.2 -- -- 79
2019-12-06 01:00:00 15.1 27 Norte 62 Norte 1.8 -- -- 78
2019-12-06 00:00:00 15.7 31 Nordeste 62 Nordeste 0 -- -- 72
2019-12-05 23:00:00 15.4 27 Norte 55 Nordeste 0.2 -- -- 74
2019-12-05 22:00:00 14.8 16 Este 49 Nordeste 3.6 -- -- 78
2019-12-05 21:00:00 14.8 24 Nordeste 49 Nordeste 0.4 -- -- 75
2019-12-05 20:00:00 15.3 22 Nordeste 60 Nordeste 0 -- -- 72
2019-12-05 19:00:00 15.3 31 Nordeste 66 Nordeste 0 -- -- 73
2019-12-05 18:00:00 15.1 23 Norte 54 Nordeste 1 -- -- 75
2019-12-05 17:00:00 15 30 Nordeste 53 Norte 1.6 -- -- 76
2019-12-05 16:00:00 16.4 28 Norte 55 Nordeste 0 -- -- 68
2019-12-05 15:00:00 15.6 31 Nordeste 72 Nordeste 0.2 -- -- 74
2019-12-05 14:00:00 15.2 23 Nordeste 59 Norte 0.8 -- -- 75
2019-12-05 13:00:00 15.2 27 Norte 54 Nordeste 0.6 -- -- 74
2019-12-05 12:00:00 16.9 27 Norte 59 Nordeste 0 -- -- 67
2019-12-05 11:00:00 16.2 24 Norte 52 Nordeste 0.2 -- -- 72
2019-12-05 10:00:00 16.1 21 Norte 48 Nordeste 0 -- -- 69
2019-12-05 09:00:00 15.8 24 Norte 73 Nordeste 0 -- -- 67
2019-12-05 08:00:00 15.6 32 Norte 68 Nordeste 0 -- -- 67
2019-12-05 07:00:00 15.4 32 Norte 62 Norte 0 -- -- 68
2019-12-05 06:00:00 15.2 35 Norte 70 Nordeste 0.2 -- -- 75
2019-12-05 05:00:00 15.1 33 Norte 68 Nordeste 0.4 -- -- 76
2019-12-05 04:00:00 14.9 35 Norte 67 Nordeste 0.8 -- -- 85
2019-12-05 03:00:00 15.3 7 Sur 13 Nordeste 2.2 -- -- 84
2019-12-05 02:00:00 16.7 6 Nordeste 25 Sudeste 0 -- -- 75
2019-12-05 01:00:00 16.6 10 Nordeste 30 Nordeste 0 -- -- 75
2019-12-05 00:00:00 17.5 9 Norte 26 Norte 0 -- -- 71
2019-12-04 23:00:00 17.4 9 Norte 31 Noroeste 0 -- -- 69
2019-12-04 22:00:00 17.4 11 Norte 35 Nordeste 0 -- -- 67
2019-12-04 21:00:00 17.5 17 Nordeste 44 Nordeste 0 -- -- 69
2019-12-04 20:00:00 17.5 18 Nordeste 38 Noroeste 0 -- -- 68
2019-12-04 19:00:00 17.5 9 Norte 31 Nordeste 0 -- -- 69
2019-12-04 18:00:00 17.7 18 Nordeste 46 Nordeste 0 -- -- 69
2019-12-04 17:00:00 18.7 18 Norte 37 Norte 0 -- -- 63
2019-12-04 16:00:00 18.8 20 Norte 34 Norte 0 -- -- 57
2019-12-04 15:00:00 19 13 Norte 31 Norte 0 -- -- 55
2019-12-04 14:00:00 16.7 12 Nordeste 32 Norte 0 -- -- 72
2019-12-04 13:00:00 15.9 17 Norte 36 Noroeste 0 -- -- 77
2019-12-04 12:00:00 19 14 Norte 27 Norte 0 -- -- 52
2019-12-04 11:00:00 17.7 17 Norte 36 Noroeste 0 -- -- 57
2019-12-04 10:00:00 18 11 Norte 28 Norte 0 -- -- 49
2019-12-04 09:00:00 16.8 11 Noroeste 32 Norte 0 -- -- 59
2019-12-04 08:00:00 16.5 3 Sudeste 15 Noroeste 0 -- -- 63
2019-12-04 07:00:00 16.7 6 Noroeste 27 Nordeste 0 -- -- 60
2019-12-04 06:00:00 16.6 7 Norte 20 Norte 0 -- -- 64
2019-12-04 05:00:00 16.2 7 Sudoeste 22 Nordeste 0 -- -- 58
2019-12-04 04:00:00 16.5 12 Norte 28 Norte 0 -- -- 54
2019-12-04 03:00:00 16.2 7 Norte 25 Norte 0 -- -- 57
2019-12-04 02:00:00 16.4 10 Norte 20 Nordeste 0 -- -- 57
2019-12-04 01:00:00 17 11 Norte 26 Norte 0 -- -- 52
2019-12-04 00:00:00 16.5 12 Norte 29 Nordeste 0 -- -- 60
2019-12-03 23:00:00 17.3 17 Norte 36 Nordeste 0 -- -- 52
2019-12-03 22:00:00 17.1 17 Norte 35 Nordeste 0 -- -- 54
2019-12-03 21:00:00 17.1 15 Norte 33 Norte 0 -- -- 54
2019-12-03 20:00:00 17.1 17 Norte 32 Norte 0 -- -- 53
2019-12-03 19:00:00 17.2 19 Norte 32 Norte 0 -- -- 55
2019-12-03 18:00:00 17.6 19 Norte 33 Norte 0 -- -- 57
2019-12-03 17:00:00 18.7 14 Norte 27 Norte 0 -- -- 54
2019-12-03 16:00:00 19 18 Norte 34 Nordeste 0 -- -- 51
2019-12-03 15:00:00 18.1 18 Norte 42 Norte 0 -- -- 52
2019-12-03 14:00:00 18.4 17 Norte 42 Nordeste 0 -- -- 59
2019-12-03 13:00:00 18.4 23 Norte 44 Norte 0 -- -- 58
2019-12-03 12:00:00 18.2 21 Nordeste 50 Norte 0 -- -- 55
2019-12-03 11:00:00 -- -- -- -- -- -- -- -- --
2019-12-03 10:00:00 17.3 19 Norte 45 Norte 0 -- -- 57
2019-12-03 09:00:00 16.8 13 Norte 44 Nordeste 0 -- -- 64
2019-12-03 08:00:00 16.7 14 Norte 38 Nordeste 0 -- -- 65
2019-12-03 07:00:00 16.4 15 Norte 36 Nordeste 0 -- -- 71
2019-12-03 06:00:00 16 11 Norte 40 Nordeste 0.2 -- -- 72
2019-12-03 05:00:00 14.8 16 Norte 39 Nordeste 1 -- -- 81
2019-12-03 04:00:00 16.6 12 Noroeste 37 Norte 0 -- -- 69
2019-12-03 03:00:00 16.2 13 Noroeste 33 Norte 0 -- -- 69
2019-12-03 02:00:00 15.6 14 Norte 35 Norte 0 -- -- 76
2019-12-03 01:00:00 16.2 14 Norte 44 Norte 0 -- -- 74
2019-12-03 00:00:00 15.8 9 Noroeste 41 Norte 0 -- -- 74
2019-12-02 23:00:00 17 8 Nordeste 40 Noroeste 0 -- -- 68
2019-12-02 22:00:00 17 16 Norte 42 Noroeste 0 -- -- 69
2019-12-02 21:00:00 17.1 11 Noroeste 34 Noroeste 0 -- -- 73
2019-12-02 20:00:00 17.3 15 Norte 29 Noroeste 0 -- -- 71
2019-12-02 19:00:00 17.7 13 Norte 35 Norte 0 -- -- 67
2019-12-02 18:00:00 17.9 11 Norte 44 Noroeste 0 -- -- 64
2019-12-02 17:00:00 19.2 19 Norte 42 Norte 0 -- -- 60
2019-12-02 16:00:00 19.5 28 Norte 39 Norte 0 -- -- 58
2019-12-02 15:00:00 20.5 24 Norte 39 Nordeste 0 -- -- 55
2019-12-02 14:00:00 20.6 23 Nordeste 46 Nordeste 0 -- -- 50
2019-12-02 13:00:00 20.2 13 Norte 41 Noroeste 0 -- -- 54
2019-12-02 12:00:00 19.5 22 Nordeste 43 Nordeste 0 -- -- 58
2019-12-02 11:00:00 19 17 Norte 31 Norte 0 -- -- 68
2019-12-02 10:00:00 17.7 17 Norte 38 Nordeste 0 -- -- 74
2019-12-02 09:00:00 18.1 21 Norte 38 Noroeste 0 -- -- 71
2019-12-02 08:00:00 18.3 24 Norte 45 Nordeste 0 -- -- 62
2019-12-02 07:00:00 18.3 26 Norte 45 Norte 0 -- -- 59
2019-12-02 06:00:00 17.9 19 Norte 37 Norte 0 -- -- 63
2019-12-02 05:00:00 17.5 15 Norte 36 Norte 0 -- -- 73
2019-12-02 04:00:00 18.1 10 Noroeste 26 Norte 0 -- -- 62
2019-12-02 03:00:00 16.4 3 Norte 20 Nordeste 0 -- -- 65
2019-12-02 02:00:00 16.9 13 Nordeste 26 Nordeste 0 -- -- 67
2019-12-02 01:00:00 16.9 14 Nordeste 25 Norte 0 -- -- 70
2019-12-02 00:00:00 17 10 Nordeste 16 Nordeste 0 -- -- 69
2019-12-01 23:00:00 17.1 8 Nordeste 13 Nordeste 0 -- -- 73
2019-12-01 22:00:00 16.6 5 Norte 8 Nordeste 0 -- -- 72
2019-12-01 21:00:00 17.3 0 Calma 19 Nordeste 0 -- -- 72
2019-12-01 20:00:00 17.5 5 Norte 14 Norte 0 -- -- 78
2019-12-01 19:00:00 18.7 6 Sur 27 Sudeste 0 -- -- 75
2019-12-01 18:00:00 20.5 19 Sur 27 Sur 0 -- -- 69
2019-12-01 17:00:00 23.8 13 Sur 21 Sur 0 -- -- 61
2019-12-01 16:00:00 24 15 Sur 22 Sur 0 -- -- 62
2019-12-01 15:00:00 23.6 18 Sur 26 Sur 0 -- -- 65
2019-12-01 14:00:00 23.5 19 Sur 28 Sur 0 -- -- 64
2019-12-01 13:00:00 24.1 22 Sur 28 Sur 0 -- -- 61
2019-12-01 12:00:00 23.9 19 Sur 29 Sur 0 -- -- 62
2019-12-01 11:00:00 21.7 6 Sur 11 Sur 0 -- -- 64
2019-12-01 10:00:00 18.9 3 Nordeste 9 Sur 0 -- -- 74
2019-12-01 09:00:00 16.9 6 Norte 9 Norte 0 -- -- 70
2019-12-01 08:00:00 16.8 4 Nordeste 10 Norte 0 -- -- 66
2019-12-01 07:00:00 17.1 3 Nordeste 10 Norte 0 -- -- 59
2019-12-01 06:00:00 17.2 6 Sur 13 Sur 0 -- -- 56
2019-12-01 05:00:00 17.7 6 Norte 10 Norte 0 -- -- 55
2019-12-01 04:00:00 18.8 5 Sur 12 Norte 0 -- -- 57
2019-12-01 03:00:00 22.3 10 Norte 16 Norte 0 -- -- 26
2019-12-01 02:00:00 22.4 10 Norte 16 Norte 0 -- -- 26
2019-12-01 01:00:00 22.5 12 Norte 15 Norte 0 -- -- 27
2019-12-01 00:00:00 22.7 12 Norte 15 Norte 0 -- -- 29
2019-11-30 23:00:00 23 7 Norte 11 Norte 0 -- -- 29
2019-11-30 22:00:00 22.8 6 Norte 13 Norte 0 -- -- 25
2019-11-30 21:00:00 23.3 8 Nordeste 12 Norte 0 -- -- 27
2019-11-30 20:00:00 23.4 8 Nordeste 10 Nordeste 0 -- -- 30
2019-11-30 19:00:00 23.2 5 Nordeste 8 Norte 0 -- -- 33
2019-11-30 18:00:00 24.8 0 Calma 17 Sur 0 -- -- 31
2019-11-30 17:00:00 28.1 10 Sur 25 Sur 0 -- -- 28
2019-11-30 16:00:00 28.6 19 Sur 26 Sur 0 -- -- 28
2019-11-30 15:00:00 28.7 15 Sur 22 Sur 0 -- -- 28
2019-11-30 14:00:00 29 17 Sur 27 Sur 0 -- -- 30
2019-11-30 13:00:00 28.4 19 Sur 24 Sur 0 -- -- 32
2019-11-30 12:00:00 26.8 14 Sur 22 Sur 0 -- -- 36
2019-11-30 11:00:00 26.1 6 Sur 13 Sur 0 -- -- 34
2019-11-30 10:00:00 23.4 2 Norte 14 Sur 0 -- -- 32
2019-11-30 09:00:00 24.9 6 Este 13 Norte 0 -- -- 23
2019-11-30 08:00:00 23.8 9 Nordeste 16 Norte 0 -- -- 24
2019-11-30 07:00:00 25.4 8 Nordeste 19 Nordeste 0 -- -- 22
2019-11-30 06:00:00 23.7 9 Nordeste 17 Nordeste 0 -- -- 25
2019-11-30 05:00:00 23.9 4 Nordeste 22 Norte 0 -- -- 25
2019-11-30 04:00:00 25.4 10 Norte 21 Norte 0 -- -- 23
2019-11-30 03:00:00 26.2 14 Norte 23 Norte 0 -- -- 22
2019-11-30 02:00:00 25.2 3 Sudeste 25 Norte 0 -- -- 23
2019-11-30 01:00:00 25.8 9 Norte 16 Norte 0 -- -- 23
2019-11-30 00:00:00 25.5 4 Norte 14 Este 0 -- -- 25
2019-11-29 23:00:00 25.2 8 Nordeste 14 Norte 0 -- -- 25
2019-11-29 22:00:00 24.3 9 Norte 13 Norte 0 -- -- 25
2019-11-29 21:00:00 24.3 9 Norte 14 Nordeste 0 -- -- 26
2019-11-29 20:00:00 23.9 7 Norte 13 Norte 0 -- -- 28
2019-11-29 19:00:00 24.1 9 Norte 13 Norte 0 -- -- 31
2019-11-29 18:00:00 25.4 3 Nordeste 28 Sur 0 -- -- 35
2019-11-29 17:00:00 29 19 Sur 37 Sur 0 -- -- 30
2019-11-29 16:00:00 30.4 16 Sudoeste 50 Sur 0 -- -- 21
2019-11-29 15:00:00 30.2 19 Sudoeste 46 Sur 0 -- -- 21
2019-11-29 14:00:00 30 22 Sudoeste 45 Sudoeste 0 -- -- 21
2019-11-29 13:00:00 30 21 Sudoeste 53 Sur 0 -- -- 22
2019-11-29 12:00:00 28.7 17 Sudoeste 42 Sudoeste 0 -- -- 23
2019-11-29 11:00:00 27.5 10 Sudoeste 31 Norte 0 -- -- 25
2019-11-29 10:00:00 25 7 Norte 24 Sudoeste 0 -- -- 30
2019-11-29 09:00:00 23.5 9 Sudoeste 18 Noroeste 0 -- -- 31
2019-11-29 08:00:00 23.6 8 Noroeste 28 Norte 0 -- -- 30
2019-11-29 07:00:00 22 6 Nordeste 26 Norte 0 -- -- 33
2019-11-29 06:00:00 19.2 4 Norte 11 Norte 0 -- -- 44
2019-11-29 05:00:00 19.4 0 Calma 10 Norte 0 -- -- 43
2019-11-29 04:00:00 18.7 3 Norte 13 Norte 0 -- -- 44
2019-11-29 03:00:00 18.8 4 Este 10 Sudeste 0 -- -- 47
2019-11-29 02:00:00 19.5 4 Sur 9 Noroeste 0 -- -- 39
2019-11-29 01:00:00 20.9 0 Calma 9 Sur 0 -- -- 36
2019-11-29 00:00:00 21 3 Nordeste 7 Noroeste 0 -- -- 36
2019-11-28 23:00:00 22.8 4 Sudeste 12 Norte 0 -- -- 34
2019-11-28 22:00:00 22 5 Norte 10 Nordeste 0 -- -- 36
2019-11-28 21:00:00 20.9 0 Calma 8 Norte 0 -- -- 42
2019-11-28 20:00:00 20.9 0 Calma 10 Norte 0 -- -- 46
2019-11-28 19:00:00 20.9 5 Norte 7 Nordeste 0 -- -- 53
2019-11-28 18:00:00 21.6 2 Este 8 Norte 0 -- -- 53
2019-11-28 17:00:00 22.1 0 Calma 12 Sur 0 -- -- 51
2019-11-28 16:00:00 23.2 5 Sudoeste 18 Sudoeste 0 -- -- 52
2019-11-28 15:00:00 23.9 14 Sur 19 Sur 0 -- -- 53
2019-11-28 14:00:00 23.6 10 Sur 22 Sur 0 -- -- 57
2019-11-28 13:00:00 23 15 Sur 27 Sur 0 -- -- 58
2019-11-28 12:00:00 23.5 13 Sur 22 Sur 0 -- -- 62
2019-11-28 11:00:00 21 9 Sur 13 Sur 0 -- -- 67
2019-11-28 10:00:00 17 0 Calma 3 Este 0 -- -- 83
2019-11-28 09:00:00 15.3 3 Nordeste 9 Norte 0 -- -- 85
2019-11-28 08:00:00 14.2 5 Norte 9 Norte 0 -- -- 81
2019-11-28 07:00:00 14.5 4 Norte 7 Norte 0 -- -- 76
2019-11-28 06:00:00 14.7 2 Norte 8 Norte 0 -- -- 76
2019-11-28 05:00:00 14.9 3 Nordeste 6 Norte 0 -- -- 79
2019-11-28 04:00:00 15.4 4 Nordeste 6 Norte 0 -- -- 76
2019-11-28 03:00:00 15.7 0 Calma 11 Norte 0 -- -- 73
2019-11-28 02:00:00 15.9 3 Norte 8 Norte 0 -- -- 75
2019-11-28 01:00:00 16.1 4 Sur 8 Norte 0 -- -- 77
2019-11-28 00:00:00 16.1 5 Norte 9 Norte 0 -- -- 83
2019-11-27 23:00:00 16.4 0 Calma 8 Nordeste 0 -- -- 84
2019-11-27 22:00:00 17 4 Norte 12 Sur 0 -- -- 87
2019-11-27 21:00:00 17.5 3 Sur 9 Sur 0 -- -- 82
2019-11-27 20:00:00 18.1 0 Calma 17 Sur 0 -- -- 82
2019-11-27 19:00:00 19 2 Norte 5 Norte 0 -- -- 76
2019-11-27 18:00:00 20.1 2 Sudoeste 15 Sur 0 -- -- 73
2019-11-27 17:00:00 21.9 12 Sur 21 Sur 0 -- -- 68
2019-11-27 16:00:00 23.1 17 Sur 26 Sur 0 -- -- 65
2019-11-27 15:00:00 23.4 17 Sur 31 Sur 0 -- -- 63
2019-11-27 14:00:00 23.5 18 Sur 26 Sur 0 -- -- 63
2019-11-27 13:00:00 22.8 19 Sur 27 Sur 0 -- -- 66
2019-11-27 05:00:00 -- -- -- -- -- -- -- -- --
2019-11-27 04:00:00 -- -- -- -- -- -- -- -- --
2019-11-27 03:00:00 15.2 0 Calma 9 Norte 0 -- -- 84
2019-11-27 02:00:00 15.7 6 Norte 8 Norte 0 -- -- 85
2019-11-27 01:00:00 15.9 0 Calma 6 Norte 0 -- -- 84
2019-11-27 00:00:00 16.5 4 Este 10 Norte 0 -- -- 87
2019-11-26 23:00:00 16.5 3 Nordeste 6 Norte 0 -- -- 87
2019-11-26 22:00:00 16.8 2 Sudeste 21 Norte 0 -- -- 85
2019-11-26 21:00:00 17.4 0 Calma 10 Norte 0 -- -- 83
2019-11-26 20:00:00 17.8 0 Calma 8 Sur 0 -- -- 84
2019-11-26 19:00:00 18.5 4 Sur 13 Sur 0 -- -- 77
2019-11-26 18:00:00 19.7 6 Sur 18 Sur 0 -- -- 73
2019-11-26 17:00:00 22.4 8 Sur 21 Sur 0 -- -- 64
2019-11-26 16:00:00 23.8 15 Sur 23 Sur 0 -- -- 60
2019-11-26 15:00:00 23.2 15 Sur 22 Sur 0 -- -- 62
2019-11-26 14:00:00 22.9 19 Sur 28 Sur 0 -- -- 64
2019-11-26 13:00:00 22.3 15 Sur 20 Sur 0 -- -- 69
2019-11-26 12:00:00 19.7 12 Sur 21 Sur 0 -- -- 79
2019-11-26 11:00:00 19 11 Sur 15 Sur 0 -- -- 78
2019-11-26 10:00:00 18.2 6 Sudeste 10 Nordeste 0 -- -- 82
2019-11-26 09:00:00 15.1 7 Norte 10 Norte 0 -- -- 87
2019-11-26 08:00:00 14.8 7 Norte 13 Norte 0 -- -- 86
2019-11-26 07:00:00 15.2 5 Norte 10 Norte 0 -- -- 86
2019-11-26 06:00:00 14.3 6 Norte 10 Norte 0 -- -- 86
2019-11-26 05:00:00 14.5 4 Norte 9 Norte 0 -- -- 84
2019-11-26 04:00:00 14.8 0 Calma 8 Norte 0 -- -- 83
2019-11-26 03:00:00 15.2 5 Norte 7 Norte 0 -- -- 83
2019-11-26 02:00:00 15.5 4 Nordeste 9 Norte 0 -- -- 82
2019-11-26 01:00:00 15.8 8 Norte 12 Norte 0 -- -- 81
2019-11-26 00:00:00 16.3 0 Calma 8 Norte 0 -- -- 78
2019-11-25 23:00:00 16.9 0 Calma 6 Norte 0 -- -- 77
2019-11-25 22:00:00 18 8 Sur 12 Sur 0 -- -- 76
2019-11-25 21:00:00 18.4 7 Sur 10 Sur 0 -- -- 73
2019-11-25 20:00:00 18.7 5 Sudoeste 10 Norte 0 -- -- 72
2019-11-25 19:00:00 18.5 6 Norte 18 Sur 0 -- -- 71
2019-11-25 18:00:00 19.4 12 Sur 25 Este 0 -- -- 69
2019-11-25 17:00:00 19.7 11 Este 22 Noroeste 0 -- -- 68
2019-11-25 16:00:00 20.5 4 Norte 23 Sur 0 -- -- 65
2019-11-25 15:00:00 21.3 18 Sur 29 Sur 0 -- -- 60
2019-11-25 14:00:00 22.6 19 Sur 27 Sur 0 -- -- 58
2019-11-25 13:00:00 21 19 Sur 25 Sur 0 -- -- 64
2019-11-25 12:00:00 20.3 16 Sur 23 Sur 0 -- -- 68
2019-11-25 11:00:00 19.5 9 Sur 18 Sur 0 -- -- 69
2019-11-25 10:00:00 17.7 4 Sudeste 7 Sur 0 -- -- 78
2019-11-25 09:00:00 15.1 0 Calma 12 Norte 0 -- -- 79
2019-11-25 08:00:00 14.6 8 Nordeste 15 Norte 0 -- -- 79
2019-11-25 07:00:00 15.1 10 Norte 12 Norte 0 -- -- 77
2019-11-25 06:00:00 15 6 Norte 13 Norte 0 -- -- 78
2019-11-25 05:00:00 16.3 10 Norte 13 Norte 0 -- -- 75
2019-11-25 04:00:00 16.8 4 Norte 14 Norte 0 -- -- 74
2019-11-25 03:00:00 17.2 6 Norte 10 Norte 0 -- -- 73
2019-11-25 02:00:00 17.4 0 Calma 5 Nordeste 0 -- -- 74
2019-11-25 01:00:00 16.8 0 Calma 9 Norte 0 -- -- 73
2019-11-25 00:00:00 16.4 7 Nordeste 17 Nordeste 0 -- -- 72
2019-11-24 23:00:00 16.6 3 Nordeste 14 Nordeste 0 -- -- 72
2019-11-24 22:00:00 17.1 6 Norte 20 Nordeste 0 -- -- 71
2019-11-24 21:00:00 17.4 12 Nordeste 24 Norte 0 -- -- 72
2019-11-24 20:00:00 17.7 10 Nordeste 22 Nordeste 0 -- -- 71
2019-11-24 19:00:00 18.4 8 Nordeste 23 Nordeste 0 -- -- 66
2019-11-24 18:00:00 19.5 8 Sur 25 Norte 0 -- -- 72
2019-11-24 17:00:00 20.4 17 Norte 24 Norte 0 -- -- 64
2019-11-24 16:00:00 20.6 13 Norte 25 Norte 0 -- -- 64
2019-11-24 15:00:00 23.1 14 Sur 25 Sur 0 -- -- 68
2019-11-24 14:00:00 22.1 19 Sur 28 Sur 0 -- -- 71
2019-11-24 13:00:00 22.1 21 Sur 30 Sur 0 -- -- 70
2019-11-24 12:00:00 21.4 18 Sur 25 Sur 0 -- -- 74
2019-11-24 11:00:00 19.2 9 Sur 14 Sur 0 -- -- 79
2019-11-24 10:00:00 18.2 9 Sur 12 Sur 0 -- -- 80
2019-11-24 09:00:00 17 3 Sur 10 Nordeste 0 -- -- 82
2019-11-24 08:00:00 17.4 6 Este 13 Nordeste 0 -- -- 82
2019-11-24 07:00:00 17.6 5 Sur 24 Noroeste 0 -- -- 77
2019-11-24 06:00:00 18.8 14 Norte 27 Norte 0 -- -- 71
2019-11-24 05:00:00 18.6 16 Norte 28 Norte 0 -- -- 68
2019-11-24 04:00:00 18.7 20 Norte 26 Norte 0 -- -- 71
2019-11-24 03:00:00 19 16 Norte 28 Norte 0 -- -- 65
2019-11-24 02:00:00 19.2 18 Norte 31 Nordeste 0 -- -- 63
2019-11-24 01:00:00 19.3 10 Norte 28 Norte 0 -- -- 63
2019-11-24 00:00:00 19.5 14 Norte 32 Norte 0 -- -- 62
2019-11-23 23:00:00 19.8 18 Norte 39 Norte 0 -- -- 59
2019-11-23 22:00:00 17.6 3 Nordeste 10 Sur 0 -- -- 82
2019-11-23 21:00:00 18.4 9 Sur 13 Sur 0 -- -- 81
2019-11-23 20:00:00 19 5 Sur 22 Sur 0 -- -- 78
2019-11-23 19:00:00 20.2 8 Sur 26 Noroeste 0 -- -- 74
2019-11-23 18:00:00 20.5 13 Norte 26 Noroeste 0 -- -- 75
2019-11-23 17:00:00 21 14 Norte 36 Norte 0 -- -- 74
2019-11-23 16:00:00 21.2 21 Norte 45 Norte 0 -- -- 72
2019-11-23 15:00:00 21.4 28 Norte 39 Noroeste 0 -- -- 71
2019-11-23 14:00:00 21.5 21 Noroeste 35 Noroeste 0 -- -- 72
2019-11-23 13:00:00 21.7 17 Norte 44 Noroeste 0 -- -- 69
2019-11-23 12:00:00 21.8 17 Norte 31 Norte 0 -- -- 66
2019-11-23 11:00:00 21.4 18 Norte 37 Norte 0 -- -- 67
2019-11-23 10:00:00 20.6 18 Norte 32 Norte 0 -- -- 73
2019-11-23 09:00:00 18.9 15 Norte 33 Nordeste 0 -- -- 85
2019-11-23 08:00:00 18.5 15 Norte 27 Norte 0 -- -- 88
2019-11-23 07:00:00 18.8 14 Norte 26 Norte 0 -- -- 89
2019-11-23 06:00:00 17.9 12 Sur 26 Sur 0 -- -- 93
2019-11-23 05:00:00 17.8 9 Sur 19 Sur 0 -- -- 94
2019-11-23 04:00:00 17.8 9 Sur 19 Sur 0 -- -- 93
2019-11-23 03:00:00 17.6 6 Sur 21 Sur 0 -- -- 93
2019-11-23 02:00:00 17.6 4 Sudeste 18 Sur 0 -- -- 92
2019-11-23 01:00:00 17.5 7 Sur 16 Sur 0 -- -- 91
2019-11-23 00:00:00 17.6 2 Sudeste 9 Sur 0 -- -- 89
2019-11-22 23:00:00 18.2 4 Sur 9 Sudoeste 0 -- -- 89
2019-11-22 22:00:00 18 3 Sur 7 Sur 0 -- -- 88
2019-11-22 21:00:00 18.1 2 Sur 13 Sur 0 -- -- 87
2019-11-22 20:00:00 18.4 8 Sur 12 Sur 0 -- -- 86
2019-11-22 19:00:00 18.9 9 Sur 20 Sur 0 -- -- 83
2019-11-22 18:00:00 20.3 9 Sur 19 Sur 0 -- -- 75
2019-11-22 17:00:00 21.7 15 Sur 23 Sur 0 -- -- 71
2019-11-22 16:00:00 23.5 18 Sur 25 Sur 0 -- -- 67
2019-11-22 15:00:00 23.2 18 Sur 26 Sur 0 -- -- 70
2019-11-22 14:00:00 22.5 16 Sur 25 Sur 0 -- -- 73
2019-11-22 13:00:00 21.6 15 Sur 26 Sur 0 -- -- 77
2019-11-22 12:00:00 20.8 18 Sur 24 Sur 0 -- -- 77
2019-11-22 11:00:00 20.4 10 Sur 18 Sur 0 -- -- 78
2019-11-22 10:00:00 20.4 5 Sur 25 Norte 0 -- -- 72
2019-11-22 09:00:00 18.6 13 Nordeste 24 Este 0 -- -- 81
2019-11-22 08:00:00 17.1 3 Norte 10 Norte 0 -- -- 88
2019-11-22 07:00:00 16.9 3 Nordeste 9 Norte 0.2 -- -- 89
2019-11-22 06:00:00 16.9 5 Norte 8 Norte 0 -- -- 91
2019-11-22 05:00:00 17.6 3 Nordeste 6 Nordeste 0 -- -- 91
2019-11-22 04:00:00 18.2 0 Calma 9 Sur 0 -- -- 91
2019-11-22 03:00:00 18.3 2 Sur 5 Sur 0 -- -- 90
2019-11-22 02:00:00 18.4 0 Calma 7 Sudeste 0 -- -- 89
2019-11-22 01:00:00 18.3 3 Sur 6 Sur 0 -- -- 88
2019-11-22 00:00:00 17.7 0 Calma 8 Norte 0 -- -- 83
2019-11-21 23:00:00 17.2 4 Nordeste 7 Norte 0 -- -- 82
2019-11-21 22:00:00 17.2 0 Calma 4 Norte 0 -- -- 81
2019-11-21 21:00:00 17.5 3 Norte 5 Sudeste 0 -- -- 80
2019-11-21 20:00:00 18 4 Sur 15 Sur 0 -- -- 77
2019-11-21 19:00:00 18.3 7 Sur 15 Sur 0 -- -- 75
2019-11-21 18:00:00 19.1 13 Sur 20 Sur 0 -- -- 73
2019-11-21 17:00:00 20.1 14 Sur 26 Sur 0 -- -- 69
2019-11-21 16:00:00 22.7 19 Sur 31 Sur 0 -- -- 60
2019-11-21 15:00:00 23.2 20 Sur 33 Sur 0 -- -- 58
2019-11-21 14:00:00 23.8 22 Sur 28 Sudoeste 0 -- -- 57
2019-11-21 13:00:00 22.6 17 Sur 26 Sur 0 -- -- 60
2019-11-21 12:00:00 22.6 20 Sur 26 Sur 0 -- -- 66
2019-11-21 11:00:00 22.1 20 Sur 30 Sur 0 -- -- 64
2019-11-21 10:00:00 20.1 12 Sur 16 Sur 0 -- -- 74
2019-11-21 09:00:00 18.4 7 Sur 10 Sur 0 -- -- 84
2019-11-21 08:00:00 17.8 4 Sur 6 Sur 0 -- -- 78
2019-11-21 07:00:00 -- -- -- -- -- -- -- -- --
2019-11-21 06:00:00 -- -- -- -- -- -- -- -- --
2019-11-21 05:00:00 -- -- -- -- -- -- -- -- --
2019-11-21 04:00:00 -- -- -- -- -- -- -- -- --
2019-11-21 03:00:00 -- -- -- -- -- -- -- -- --
2019-11-21 02:00:00 -- -- -- -- -- -- -- -- --
2019-11-21 01:00:00 -- -- -- -- -- -- -- -- --
2019-11-21 00:00:00 -- -- -- -- -- -- -- -- --
2019-11-20 23:00:00 -- -- -- -- -- -- -- -- --
2019-11-20 22:00:00 -- -- -- -- -- -- -- -- --
2019-11-20 21:00:00 -- -- -- -- -- -- -- -- --
2019-11-20 20:00:00 -- -- -- -- -- -- -- -- --
2019-11-20 19:00:00 18.7 6 Sur 18 Sur 0 -- -- 74
2019-11-20 18:00:00 19.4 13 Sur 24 Sur 0 -- -- 72
2019-11-20 17:00:00 22.1 17 Sur 29 Sur 0 -- -- 62
2019-11-20 16:00:00 23.3 17 Sur 29 Sur 0 -- -- 55
2019-11-20 15:00:00 23.4 21 Sur 32 Sur 0 -- -- 54
2019-11-20 14:00:00 23.5 18 Sur 27 Sur 0 -- -- 55
2019-11-20 13:00:00 22.6 19 Sur 28 Sur 0 -- -- 62
2019-11-20 12:00:00 21.5 15 Sur 26 Sur 0 -- -- 65
2019-11-20 11:00:00 18.9 13 Sur 19 Sudeste 0 -- -- 70
2019-11-20 10:00:00 18.6 6 Sudeste 9 Sudeste 0 -- -- 69
2019-11-20 09:00:00 14.9 4 Norte 11 Norte 0 -- -- 76
2019-11-20 08:00:00 14.5 5 Norte 12 Norte 0 -- -- 75
2019-11-20 07:00:00 14.1 6 Norte 13 Norte 0 -- -- 75
2019-11-20 06:00:00 14 6 Norte 9 Norte 0 -- -- 75
2019-11-20 05:00:00 14.3 0 Calma 8 Nordeste 0 -- -- 74
2019-11-20 04:00:00 15.4 4 Nordeste 9 Norte 0 -- -- 73
2019-11-20 03:00:00 15.5 5 Norte 14 Norte 0 -- -- 73
2019-11-20 02:00:00 14.9 0 Calma 10 Norte 0 -- -- 78
2019-11-20 01:00:00 15.3 9 Nordeste 12 Norte 0 -- -- 77
2019-11-20 00:00:00 15.8 6 Norte 12 Norte 0 -- -- 76
2019-11-19 23:00:00 16.2 6 Norte 9 Norte 0 -- -- 75
2019-11-19 22:00:00 16.8 5 Norte 14 Nordeste 0 -- -- 74
2019-11-19 21:00:00 17.2 8 Nordeste 18 Nordeste 0 -- -- 75
2019-11-19 20:00:00 17.4 11 Nordeste 18 Nordeste 0 -- -- 76
2019-11-19 19:00:00 17.6 8 Nordeste 26 Norte 0 -- -- 74
2019-11-19 18:00:00 18.2 10 Norte 28 Norte 0 -- -- 73
2019-11-19 17:00:00 19.1 8 Norte 26 Norte 0 -- -- 70
2019-11-19 16:00:00 20.3 6 Oeste 22 Noroeste 0 -- -- 63
2019-11-19 15:00:00 21.6 12 Sudoeste 26 Noroeste 0 -- -- 57
2019-11-19 14:00:00 20.6 16 Norte 43 Noroeste 0 -- -- 63
2019-11-19 13:00:00 19.9 28 Norte 43 Norte 0 -- -- 69
2019-11-19 12:00:00 19.1 29 Noroeste 43 Noroeste 0 -- -- 71
2019-11-19 11:00:00 19.2 22 Norte 42 Noroeste 0 -- -- 72
2019-11-19 10:00:00 18.6 9 Noroeste 23 Norte 0 -- -- 69
2019-11-19 09:00:00 14.9 2 Sudoeste 12 Norte 0 -- -- 76
2019-11-19 08:00:00 14.7 3 Norte 11 Norte 0 -- -- 77
2019-11-19 07:00:00 14.1 3 Norte 9 Norte 0 -- -- 77
2019-11-19 06:00:00 14.2 6 Norte 9 Norte 0 -- -- 77
2019-11-19 05:00:00 15 3 Norte 12 Nordeste 0 -- -- 76
2019-11-19 04:00:00 14.9 6 Norte 13 Norte 0 -- -- 74
2019-11-19 03:00:00 15 3 Norte 7 Norte 0 -- -- 71
2019-11-19 02:00:00 15.4 3 Sur 8 Norte 0 -- -- 69
2019-11-19 01:00:00 15.2 0 Calma 12 Norte 0 -- -- 67
2019-11-19 00:00:00 15.3 3 Norte 8 Norte 0 -- -- 69
2019-11-18 23:00:00 15.6 6 Norte 8 Nordeste 0 -- -- 70
2019-11-18 22:00:00 16.6 0 Calma 21 Norte 0 -- -- 70
2019-11-18 21:00:00 17.7 12 Norte 21 Norte 0 -- -- 60
2019-11-18 20:00:00 17.2 5 Nordeste 14 Nordeste 0 -- -- 62
2019-11-18 19:00:00 17.8 6 Sudoeste 18 Sur 0 -- -- 70
2019-11-18 18:00:00 19.1 13 Sur 22 Sur 0 -- -- 66
2019-11-18 17:00:00 20.6 17 Sur 27 Sur 0 -- -- 60
2019-11-18 16:00:00 23.3 17 Sur 28 Sur 0 -- -- 52
2019-11-18 15:00:00 23.3 19 Sur 28 Sur 0 -- -- 54
2019-11-18 14:00:00 22.7 21 Sur 29 Sur 0 -- -- 56
2019-11-18 13:00:00 22.2 20 Sur 30 Sur 0 -- -- 57
2019-11-18 12:00:00 21 19 Sur 25 Sur 0 -- -- 61
2019-11-18 11:00:00 20.3 11 Sur 16 Sur 0 -- -- 63
2019-11-18 10:00:00 18 4 Sudeste 6 Sudeste 0 -- -- 71
2019-11-18 09:00:00 15 4 Nordeste 10 Nordeste 0 -- -- 70
2019-11-18 08:00:00 14.3 8 Nordeste 12 Norte 0 -- -- 62
2019-11-18 07:00:00 13.9 0 Calma 9 Nordeste 0 -- -- 59
2019-11-18 06:00:00 14.6 3 Nordeste 15 Norte 0 -- -- 57
2019-11-18 05:00:00 15.2 3 Sudeste 22 Nordeste 0 -- -- 55
2019-11-18 04:00:00 15.6 9 Norte 23 Nordeste 0 -- -- 56
2019-11-18 03:00:00 16 12 Norte 22 Nordeste 0 -- -- 56
2019-11-18 02:00:00 16.3 12 Nordeste 22 Nordeste 0 -- -- 58
2019-11-18 01:00:00 16.4 11 Nordeste 20 Norte 0 -- -- 60
2019-11-18 00:00:00 16.7 9 Norte 28 Norte 0 -- -- 60
2019-11-17 23:00:00 16.8 10 Norte 33 Norte 0 -- -- 61
2019-11-17 22:00:00 16.9 6 Norte 23 Norte 0 -- -- 59
2019-11-17 21:00:00 16.9 9 Norte 21 Nordeste 0 -- -- 59
2019-11-17 20:00:00 17.2 15 Norte 27 Norte 0 -- -- 62
2019-11-17 19:00:00 17.5 12 Norte 24 Norte 0 -- -- 61
2019-11-17 18:00:00 18.6 12 Sur 24 Sur 0 -- -- 65
2019-11-17 17:00:00 20 15 Sur 31 Sur 0 -- -- 60
2019-11-17 16:00:00 22.1 15 Sur 26 Sur 0 -- -- 53
2019-11-17 15:00:00 19.5 7 Sudoeste 30 Noroeste 0 -- -- 58
2019-11-17 14:00:00 19.9 9 Noroeste 17 Norte 0 -- -- 50
2019-11-17 13:00:00 20.6 10 Sur 23 Sur 0 -- -- 55
2019-11-17 12:00:00 19.1 16 Sur 28 Norte 0 -- -- 62
2019-11-17 11:00:00 18 17 Norte 31 Norte 0 -- -- 60
2019-11-17 10:00:00 18.2 13 Norte 28 Norte 0 -- -- 57
2019-11-17 09:00:00 16.5 21 Norte 32 Norte 0 -- -- 68
2019-11-17 08:00:00 16.3 19 Norte 30 Norte 0 -- -- 65
2019-11-17 07:00:00 16.4 18 Norte 27 Norte 0 -- -- 63
2019-11-17 06:00:00 15.6 8 Nordeste 16 Este 0 -- -- 65
2019-11-17 05:00:00 14.9 4 Noroeste 9 Norte 0 -- -- 71
2019-11-17 04:00:00 15.1 7 Norte 11 Norte 0 -- -- 70
2019-11-17 03:00:00 15.4 3 Norte 5 Sur 0 -- -- 66
2019-11-17 02:00:00 15.9 2 Sur 12 Nordeste 0 -- -- 66
2019-11-17 01:00:00 16.4 9 Nordeste 12 Nordeste 0 -- -- 65
2019-11-17 00:00:00 16.8 8 Norte 20 Norte 0 -- -- 61
2019-11-16 23:00:00 17.2 11 Norte 20 Norte 0 -- -- 60
2019-11-16 22:00:00 17.2 7 Norte 25 Norte 0 -- -- 59
2019-11-16 21:00:00 17.9 11 Norte 30 Norte 0 -- -- 60
2019-11-16 20:00:00 17.8 11 Norte 30 Norte 0 -- -- 60
2019-11-16 19:00:00 17.6 18 Norte 33 Norte 0 -- -- 55
2019-11-16 18:00:00 18.3 26 Norte 44 Norte 0 -- -- 58
2019-11-16 17:00:00 18.9 24 Norte 49 Norte 0 -- -- 54
2019-11-16 16:00:00 20.1 25 Norte 37 Noroeste 0 -- -- 46
2019-11-16 15:00:00 20.2 24 Norte 46 Norte 0 -- -- 47
2019-11-16 14:00:00 20.2 20 Norte 44 Norte 0 -- -- 42
2019-11-16 13:00:00 19.4 27 Norte 49 Norte 0 -- -- 44
2019-11-16 12:00:00 19 22 Norte 65 Norte 0 -- -- 50
2019-11-16 11:00:00 18.6 27 Norte 48 Norte 0 -- -- 55
2019-11-16 10:00:00 17.8 28 Norte 51 Norte 0 -- -- 56
2019-11-16 09:00:00 17.1 22 Norte 45 Norte 0 -- -- 63
2019-11-16 08:00:00 16 14 Norte 42 Norte 0 -- -- 72
2019-11-16 07:00:00 16.9 15 Norte 44 Nordeste 0 -- -- 63
2019-11-16 06:00:00 17.2 24 Norte 55 Norte 0 -- -- 58
2019-11-16 05:00:00 16.6 18 Norte 58 Norte 0 -- -- 65
2019-11-16 04:00:00 16 12 Norte 43 Norte 0 -- -- 72
2019-11-16 03:00:00 17.2 20 Norte 45 Norte 0 -- -- 59
2019-11-16 02:00:00 17 19 Norte 37 Norte 0 -- -- 62
2019-11-16 01:00:00 16.3 13 Norte 44 Norte 0 -- -- 69
2019-11-16 00:00:00 17.2 26 Norte 51 Norte 0 -- -- 59
2019-11-15 23:00:00 16.9 12 Norte 38 Norte 0 -- -- 64
2019-11-15 22:00:00 17.5 15 Norte 38 Norte 0 -- -- 58
2019-11-15 21:00:00 17 21 Noroeste 37 Norte 0 -- -- 68
2019-11-15 20:00:00 17.7 16 Norte 40 Norte 0 -- -- 56
2019-11-15 19:00:00 17.7 20 Norte 49 Norte 0 -- -- 55
2019-11-15 18:00:00 18 23 Norte 53 Nordeste 0 -- -- 57
2019-11-15 17:00:00 18.5 32 Norte 51 Norte 0 -- -- 57
2019-11-15 16:00:00 19.5 30 Norte 59 Norte 0 -- -- 52
2019-11-15 15:00:00 19 28 Norte 51 Norte 0 -- -- 57
2019-11-15 14:00:00 19.4 26 Norte 44 Norte 0 -- -- 59
2019-11-15 13:00:00 20.2 21 Norte 41 Nordeste 0 -- -- 59
2019-11-15 12:00:00 19.4 20 Norte 34 Norte 0 -- -- 64
2019-11-15 11:00:00 19.2 15 Norte 32 Noroeste 0 -- -- 65
2019-11-15 10:00:00 19 18 Norte 30 Norte 0 -- -- 64
2019-11-15 09:00:00 19.1 11 Norte 36 Noroeste 0 -- -- 62
2019-11-15 08:00:00 17.6 17 Norte 41 Norte 0 -- -- 73
2019-11-15 07:00:00 18.9 18 Norte 42 Norte 0 -- -- 60
2019-11-15 06:00:00 18.7 18 Norte 42 Norte 0 -- -- 57
2019-11-15 05:00:00 18.3 17 Norte 42 Nordeste 0 -- -- 54
2019-11-15 04:00:00 18.2 18 Norte 43 Norte 0 -- -- 56
2019-11-15 03:00:00 18.5 21 Norte 38 Noroeste 0 -- -- 62
2019-11-15 02:00:00 18.4 17 Norte 32 Norte 0 -- -- 54
2019-11-15 01:00:00 18.4 23 Norte 37 Norte 0 -- -- 63
2019-11-15 00:00:00 17.9 0 Calma 33 Norte 0 -- -- 65
2019-11-14 23:00:00 18.9 15 Norte 37 Norte 0 -- -- 60
2019-11-14 22:00:00 18.9 20 Norte 34 Norte 0 -- -- 64
2019-11-14 21:00:00 19 14 Norte 29 Norte 0 -- -- 61
2019-11-14 20:00:00 19.3 12 Norte 27 Norte 0 -- -- 61
2019-11-14 19:00:00 19.8 14 Norte 30 Norte 0 -- -- 55
2019-11-14 18:00:00 20.4 16 Norte 24 Noroeste 0 -- -- 53
2019-11-14 17:00:00 21.1 8 Sur 23 Sur 0 -- -- 60
2019-11-14 16:00:00 22.4 17 Sur 26 Sudoeste 0 -- -- 60
2019-11-14 15:00:00 22.2 17 Sur 23 Sur 0 -- -- 60
2019-11-14 14:00:00 22.8 18 Sur 30 Sur 0 -- -- 57
2019-11-14 13:00:00 23.5 19 Sur 26 Sur 0 -- -- 55
2019-11-14 12:00:00 22.7 22 Sur 29 Sur 0 -- -- 58
2019-11-14 11:00:00 21.4 12 Sur 19 Sur 0 -- -- 59
2019-11-14 10:00:00 19.9 13 Sur 19 Sur 0 -- -- 65
2019-11-14 09:00:00 18.2 0 Calma 10 Sur 0 -- -- 62
2019-11-14 08:00:00 18.5 7 Sudeste 20 Este 0 -- -- 56
2019-11-14 07:00:00 18.1 10 Nordeste 20 Norte 0 -- -- 59
2019-11-14 06:00:00 18.4 11 Norte 31 Norte 0 -- -- 60
2019-11-14 05:00:00 18.4 18 Norte 29 Norte 0 -- -- 60
2019-11-14 04:00:00 17.8 4 Norte 25 Norte 0 -- -- 59
2019-11-14 03:00:00 17.9 5 Sudeste 19 Nordeste 0 -- -- 59
2019-11-14 02:00:00 18.5 11 Nordeste 35 Norte 0 -- -- 57
2019-11-14 01:00:00 18.8 16 Norte 33 Norte 0 -- -- 53
2019-11-14 00:00:00 18.6 13 Norte 26 Norte 0 -- -- 56
2019-11-13 23:00:00 18.8 15 Norte 32 Norte 0 -- -- 57
2019-11-13 22:00:00 19.2 13 Nordeste 37 Norte 0 -- -- 52
2019-11-13 21:00:00 18.8 14 Norte 29 Norte 0 -- -- 57
2019-11-13 20:00:00 18.9 17 Nordeste 38 Norte 0 -- -- 59
2019-11-13 19:00:00 19.5 23 Norte 42 Norte 0 -- -- 56
2019-11-13 18:00:00 19.6 28 Norte 41 Norte 0 -- -- 57
2019-11-13 17:00:00 21.3 27 Norte 48 Norte 0 -- -- 48
2019-11-13 16:00:00 22.7 21 Norte 47 Noroeste 0 -- -- 47
2019-11-13 15:00:00 22.4 23 Noroeste 41 Noroeste 0 -- -- 49
2019-11-13 14:00:00 24.8 18 Sur 35 Sur 0 -- -- 53
2019-11-13 13:00:00 25.6 21 Sur 30 Sur 0 -- -- 53
2019-11-13 12:00:00 24.5 18 Sur 29 Sur 0 -- -- 56
2019-11-13 11:00:00 24.1 15 Sur 23 Sur 0 -- -- 52
2019-11-13 10:00:00 22 12 Sudoeste 31 Norte 0 -- -- 50
2019-11-13 09:00:00 20.1 12 Norte 23 Norte 0 -- -- 52
2019-11-13 08:00:00 19.4 5 Nordeste 29 Norte 0 -- -- 50
2019-11-13 07:00:00 19.7 22 Norte 41 Noroeste 0 -- -- 50
2019-11-13 06:00:00 18.8 16 Norte 36 Norte 0 -- -- 58
2019-11-13 05:00:00 19.4 23 Norte 34 Norte 0 -- -- 57
2019-11-13 04:00:00 18.3 7 Norte 16 Norte 0 -- -- 53
2019-11-13 03:00:00 18.4 3 Norte 10 Norte 0 -- -- 55
2019-11-13 02:00:00 17.9 2 Sudeste 6 Sur 0 -- -- 55
2019-11-13 01:00:00 18 4 Norte 8 Norte 0 -- -- 61
2019-11-13 00:00:00 18.4 5 Sur 20 Norte 0 -- -- 63
2019-11-12 23:00:00 20.6 9 Norte 26 Norte 0 -- -- 47
2019-11-12 22:00:00 19.4 13 Nordeste 25 Nordeste 0 -- -- 54
2019-11-12 21:00:00 19.8 7 Sur 37 Norte 0 -- -- 73
2019-11-12 20:00:00 20.8 25 Norte 45 Norte 0 -- -- 46
2019-11-12 19:00:00 20.5 30 Norte 48 Noroeste 0 -- -- 59
2019-11-12 18:00:00 21.6 31 Noroeste 46 Noroeste 0 -- -- 54
2019-11-12 17:00:00 22.5 32 Noroeste 47 Noroeste 0 -- -- 56
2019-11-12 16:00:00 23.2 23 Norte 42 Noroeste 0 -- -- 53
2019-11-12 15:00:00 23.3 24 Norte 40 Norte 0 -- -- 52
2019-11-12 14:00:00 23.4 23 Norte 39 Norte 0 -- -- 58
2019-11-12 13:00:00 24.1 13 Noroeste 27 Noroeste 0 -- -- 50
2019-11-12 12:00:00 22.9 8 Norte 40 Norte 0 -- -- 53
2019-11-12 11:00:00 22.6 20 Noroeste 37 Noroeste 0 -- -- 59
2019-11-12 10:00:00 22 8 Sudoeste 24 Norte 0 -- -- 60
2019-11-12 09:00:00 20.2 9 Oeste 33 Nordeste 0 -- -- 64
2019-11-12 08:00:00 20 14 Norte 32 Norte 0 -- -- 62
2019-11-12 07:00:00 19.8 21 Norte 38 Noroeste 0 -- -- 60
2019-11-12 06:00:00 19.7 21 Norte 40 Norte 0 -- -- 61
2019-11-12 05:00:00 19.4 19 Norte 40 Nordeste 0 -- -- 59
2019-11-12 04:00:00 19.4 18 Norte 44 Norte 0 -- -- 59
2019-11-12 03:00:00 19.3 21 Norte 40 Norte 0 -- -- 59
2019-11-12 02:00:00 20 24 Norte 57 Norte 0 -- -- 56
2019-11-12 01:00:00 20.3 22 Norte 60 Norte 0 -- -- 56
2019-11-12 00:00:00 21.2 22 Norte 52 Norte 0 -- -- 49
2019-11-11 23:00:00 21 22 Norte 55 Norte 0 -- -- 51
2019-11-11 22:00:00 20.8 23 Norte 61 Nordeste 0 -- -- 55
2019-11-11 21:00:00 20.6 20 Norte 53 Norte 0 -- -- 56
2019-11-11 20:00:00 20.3 27 Norte 63 Norte 0 -- -- 57
2019-11-11 19:00:00 20.3 31 Norte 63 Norte 0 -- -- 60
2019-11-11 18:00:00 20.4 23 Norte 57 Norte 0 -- -- 61
2019-11-11 17:00:00 21.6 27 Norte 60 Norte 0 -- -- 53
2019-11-11 16:00:00 22.3 33 Norte 57 Norte 0 -- -- 55
2019-11-11 15:00:00 23.5 29 Norte 46 Norte 0 -- -- 49
2019-11-11 14:00:00 23.5 19 Noroeste 35 Norte 0 -- -- 49
2019-11-11 13:00:00 23.5 27 Norte 41 Noroeste 0 -- -- 50
2019-11-11 12:00:00 23.7 23 Noroeste 51 Norte 0 -- -- 45
2019-11-11 11:00:00 23.7 24 Noroeste 44 Noroeste 0 -- -- 37
2019-11-11 10:00:00 21.9 12 Noroeste 53 Noroeste 0 -- -- 49
2019-11-11 09:00:00 20.3 33 Norte 51 Norte 0 -- -- 54
2019-11-11 08:00:00 19.5 35 Norte 48 Noroeste 0 -- -- 51
2019-11-11 07:00:00 18.6 14 Norte 28 Noroeste 0 -- -- 60
2019-11-11 06:00:00 19.1 12 Norte 39 Noroeste 0 -- -- 54
2019-11-11 05:00:00 18.9 25 Norte 35 Noroeste 0 -- -- 57
2019-11-11 04:00:00 18.5 20 Norte 38 Norte 0 -- -- 57
2019-11-11 03:00:00 18.7 17 Norte 39 Norte 0 -- -- 61
2019-11-11 02:00:00 18.8 22 Norte 39 Norte 0 -- -- 57
2019-11-11 01:00:00 19.5 17 Norte 36 Norte 0 -- -- 52
2019-11-11 00:00:00 20.3 19 Norte 41 Norte 0 -- -- 47